Time;durP1;ratioP1;P1;durP2;ratioP2;P2;SDS_P1;SDS_P2;PMS_P1;PMS_P2;Temp;Humidity;BMP_temperature;BMP_pressure;BME280_temperature;BME280_humidity;BME280_pressure;Samples;Min_cycle;Max_cycle;Signal;HPM_P1;HPM_P2
2022/11/10 00:01:04;;;;;;;9.65;6.30;;;25.30;99.90;;;;;;5056085;28;20045;-46
2022/11/10 00:03:30;;;;;;;9.40;6.47;;;25.40;99.90;;;;;;5056113;28;20024;-45
2022/11/10 00:05:56;;;;;;;8.95;5.80;;;25.30;99.90;;;;;;5055960;28;20037;-45
2022/11/10 00:08:22;;;;;;;8.45;5.78;;;25.40;99.90;;;;;;5056074;28;20386;-45
2022/11/10 00:10:57;;;;;;;7.40;5.45;;;25.40;99.90;;;;;;5056209;28;20427;-45
2022/11/10 00:13:28;;;;;;;10.55;5.50;;;25.30;99.90;;;;;;5056089;28;20539;-44
2022/11/10 00:18:40;;;;;;;7.95;5.55;;;25.30;99.90;;;;;;5056319;28;20067;-45
2022/11/10 00:21:08;;;;;;;8.48;4.80;;;25.30;99.90;;;;;;5055756;28;20024;-45
2022/11/10 00:23:34;;;;;;;9.45;5.20;;;25.30;99.90;;;;;;5055792;28;20111;-44
2022/11/10 00:26:00;;;;;;;7.22;4.72;;;25.30;99.90;;;;;;5056086;28;20112;-44
2022/11/10 00:28:28;;;;;;;6.72;5.18;;;25.30;99.90;;;;;;5055656;28;20025;-44
2022/11/10 00:30:54;;;;;;;6.22;4.38;;;25.30;99.90;;;;;;5055837;28;20488;-44
2022/11/10 00:33:19;;;;;;;6.28;4.75;;;25.30;99.90;;;;;;5055541;28;20032;-44
2022/11/10 00:35:45;;;;;;;6.00;4.47;;;25.30;99.90;;;;;;5055649;28;20021;-44
2022/11/10 00:38:11;;;;;;;7.97;4.60;;;25.30;99.90;;;;;;5055620;28;20048;-45
2022/11/10 00:40:36;;;;;;;7.93;4.25;;;25.30;99.90;;;;;;5055457;28;20106;-44
2022/11/10 00:43:02;;;;;;;5.82;4.45;;;25.30;99.90;;;;;;5055503;28;20079;-45
2022/11/10 00:45:28;;;;;;;6.07;4.75;;;25.30;99.90;;;;;;5055465;28;20174;-45
2022/11/10 00:47:53;;;;;;;6.07;4.32;;;25.30;99.90;;;;;;5055232;28;20501;-45
2022/11/10 00:50:19;;;;;;;5.63;4.00;;;25.30;99.90;;;;;;5055215;28;20095;-45
2022/11/10 00:52:45;;;;;;;6.47;4.45;;;25.30;99.90;;;;;;5055092;28;20028;-45
2022/11/10 00:55:11;;;;;;;5.68;3.58;;;25.30;99.90;;;;;;5037532;28;20369;-45
2022/11/10 00:57:37;;;;;;;6.38;4.38;;;25.20;99.90;;;;;;5055152;28;20035;-44
2022/11/10 01:00:03;;;;;;;5.40;4.20;;;25.30;99.90;;;;;;5054192;22;20057;-48
2022/11/10 01:02:29;;;;;;;5.22;3.53;;;25.30;99.90;;;;;;5053965;28;20376;-48
2022/11/10 01:04:55;;;;;;;5.95;4.07;;;25.20;99.90;;;;;;5054889;28;20054;-50
2022/11/10 01:07:20;;;;;;;5.40;3.40;;;25.20;99.90;;;;;;5054708;28;20024;-48
2022/11/10 01:09:46;;;;;;;5.15;3.72;;;25.20;99.90;;;;;;5054631;28;20036;-48
2022/11/10 01:12:13;;;;;;;3.97;3.38;;;25.20;99.90;;;;;;5054723;28;20035;-48
2022/11/10 01:14:39;;;;;;;4.30;2.97;;;25.20;99.90;;;;;;5054831;28;20479;-48
2022/11/10 01:17:04;;;;;;;5.20;3.47;;;25.20;99.90;;;;;;5054996;28;20032;-48
2022/11/10 01:19:30;;;;;;;5.82;3.88;;;25.20;99.90;;;;;;5054858;28;20029;-48
2022/11/10 01:21:56;;;;;;;4.30;3.15;;;25.20;99.90;;;;;;5054661;28;20033;-48
2022/11/10 01:24:22;;;;;;;4.90;3.40;;;25.20;99.90;;;;;;5054674;28;20027;-48
2022/11/10 01:26:48;;;;;;;5.47;3.58;;;25.20;99.90;;;;;;5054469;28;20388;-48
2022/11/10 01:29:14;;;;;;;5.88;4.15;;;25.20;99.90;;;;;;5054335;28;20025;-48
2022/11/10 01:31:40;;;;;;;4.82;3.58;;;25.20;99.90;;;;;;5054354;28;20484;-48
2022/11/10 01:34:06;;;;;;;3.95;2.88;;;25.10;99.90;;;;;;5054195;28;20427;-48
2022/11/10 01:36:31;;;;;;;5.53;3.72;;;25.20;99.90;;;;;;5054201;28;20029;-48
2022/11/10 01:38:57;;;;;;;4.47;3.15;;;25.20;99.90;;;;;;5054169;28;20135;-48
2022/11/10 01:41:23;;;;;;;3.97;2.83;;;25.10;99.90;;;;;;5053892;28;20063;-48
2022/11/10 01:43:49;;;;;;;4.68;3.50;;;25.10;99.90;;;;;;5054283;28;20508;-48
2022/11/10 01:46:15;;;;;;;4.03;2.90;;;25.10;99.90;;;;;;5054239;28;20096;-48
2022/11/10 01:48:46;;;;;;;3.50;2.97;;;25.10;99.90;;;;;;5054158;28;20071;-48
2022/11/10 01:51:21;;;;;;;4.20;3.03;;;25.10;99.90;;;;;;5054072;28;20162;-48
2022/11/10 01:53:55;;;;;;;4.53;3.10;;;25.10;99.90;;;;;;5054008;28;20090;-48
2022/11/10 01:56:23;;;;;;;3.67;2.67;;;25.10;99.90;;;;;;5054158;28;20499;-48
2022/11/10 01:58:59;;;;;;;5.10;3.50;;;25.10;99.90;;;;;;5054008;28;20104;-48
2022/11/10 02:01:25;;;;;;;4.63;2.97;;;25.10;99.90;;;;;;5053709;28;20044;-48
2022/11/10 02:04:00;;;;;;;4.78;3.22;;;25.10;99.90;;;;;;5054068;28;20492;-48
2022/11/10 02:06:29;;;;;;;4.30;3.30;;;25.10;99.90;;;;;;5053830;28;20029;-48
2022/11/10 02:08:57;;;;;;;3.97;3.13;;;25.10;99.90;;;;;;5053696;28;20083;-49
2022/11/10 02:11:23;;;;;;;4.30;3.08;;;25.10;99.90;;;;;;5053825;28;20115;-48
2022/11/10 02:13:49;;;;;;;3.83;2.90;;;25.00;99.90;;;;;;5053727;28;20028;-49
2022/11/10 02:16:15;;;;;;;3.78;2.65;;;25.00;99.90;;;;;;5053838;28;20024;-49
2022/11/10 02:18:41;;;;;;;4.70;3.17;;;25.10;99.90;;;;;;5053577;28;20028;-49
2022/11/10 02:21:08;;;;;;;4.40;3.10;;;25.00;99.90;;;;;;5053415;28;20170;-49
2022/11/10 02:23:36;;;;;;;3.88;2.67;;;25.00;99.90;;;;;;5053800;28;20033;-49
2022/11/10 02:26:04;;;;;;;4.63;3.35;;;25.00;99.90;;;;;;5053447;28;20025;-49
2022/11/10 02:28:35;;;;;;;3.33;2.70;;;25.00;99.90;;;;;;5053322;28;20052;-49
2022/11/10 02:31:01;;;;;;;4.32;3.28;;;25.00;99.90;;;;;;5053416;28;20064;-49
2022/11/10 02:33:27;;;;;;;3.58;2.80;;;25.00;99.90;;;;;;5053329;28;20442;-49
2022/11/10 02:35:53;;;;;;;5.20;3.03;;;25.00;99.90;;;;;;5052252;28;20094;-49
2022/11/10 02:38:19;;;;;;;3.72;2.88;;;25.00;99.90;;;;;;5053405;28;20043;-49
2022/11/10 02:40:44;;;;;;;4.15;2.60;;;25.00;99.90;;;;;;5053387;28;20082;-50
2022/11/10 02:43:12;;;;;;;2.85;2.47;;;25.00;99.90;;;;;;5053301;28;20029;-49
2022/11/10 02:45:42;;;;;;;2.80;2.40;;;25.00;99.90;;;;;;5053239;28;20029;-49
2022/11/10 02:48:09;;;;;;;3.08;2.45;;;25.00;99.90;;;;;;5051837;28;20025;-49
2022/11/10 02:50:35;;;;;;;3.70;2.60;;;25.00;99.90;;;;;;5053008;28;20033;-49
2022/11/10 02:53:00;;;;;;;3.45;2.70;;;25.00;99.90;;;;;;5051916;28;20366;-49
2022/11/10 02:55:26;;;;;;;3.65;2.50;;;25.00;99.90;;;;;;5053262;28;20477;-49
2022/11/10 02:57:52;;;;;;;4.10;2.50;;;25.00;99.90;;;;;;5051881;28;20415;-49
2022/11/10 03:00:18;;;;;;;3.42;2.63;;;24.90;99.90;;;;;;5052328;28;20118;-49
2022/11/10 03:02:43;;;;;;;3.13;2.67;;;24.90;99.90;;;;;;5052674;28;20478;-49
2022/11/10 03:05:10;;;;;;;3.08;2.17;;;25.00;99.90;;;;;;5068446;28;20095;-49
2022/11/10 03:07:35;;;;;;;3.45;2.40;;;24.90;99.90;;;;;;5053007;28;20029;-49
2022/11/10 03:10:01;;;;;;;3.80;2.50;;;25.00;99.90;;;;;;5049410;28;20044;-49
2022/11/10 03:12:27;;;;;;;3.15;2.30;;;25.00;99.90;;;;;;5051000;28;20025;-49
2022/11/10 03:14:53;;;;;;;3.08;2.42;;;25.00;99.90;;;;;;5051183;28;20029;-49
2022/11/10 03:17:18;;;;;;;3.10;2.55;;;25.00;99.90;;;;;;5050759;28;20037;-49
2022/11/10 03:19:44;;;;;;;3.28;2.20;;;24.90;99.90;;;;;;5049320;28;20021;-50
2022/11/10 03:22:10;;;;;;;4.65;2.40;;;24.90;99.90;;;;;;5045834;28;20373;-49
2022/11/10 03:24:36;;;;;;;4.40;2.60;;;24.90;99.90;;;;;;5038961;28;20036;-49
2022/11/10 03:27:01;;;;;;;2.63;2.03;;;24.90;99.90;;;;;;5031085;28;20029;-49
2022/11/10 03:29:27;;;;;;;3.28;2.15;;;24.90;99.90;;;;;;5031309;28;20094;-49
2022/11/10 03:31:53;;;;;;;3.95;2.45;;;24.90;99.90;;;;;;5030583;28;20545;-49
2022/11/10 03:34:19;;;;;;;4.85;2.63;;;24.90;99.90;;;;;;5030450;28;20505;-49
2022/11/10 03:36:44;;;;;;;2.70;2.20;;;24.90;99.90;;;;;;5030641;28;20573;-49
2022/11/10 03:39:10;;;;;;;3.47;2.53;;;24.90;99.90;;;;;;5030597;28;20033;-49
2022/11/10 03:41:36;;;;;;;3.47;2.20;;;24.90;99.90;;;;;;5030397;28;20432;-49
2022/11/10 03:44:02;;;;;;;3.40;2.10;;;24.90;99.90;;;;;;5031165;28;20029;-49
2022/11/10 03:46:27;;;;;;;2.90;2.03;;;24.90;99.90;;;;;;5031282;28;20033;-49
2022/11/10 03:48:54;;;;;;;3.63;2.72;;;24.80;99.90;;;;;;5032647;28;20022;-49
2022/11/10 03:51:20;;;;;;;3.50;2.45;;;24.80;99.90;;;;;;5032563;28;20033;-49
2022/11/10 03:53:46;;;;;;;9.57;2.85;;;24.90;99.90;;;;;;5032488;28;20022;-49
2022/11/10 03:56:12;;;;;;;3.35;2.20;;;24.80;99.90;;;;;;5032533;28;20026;-49
2022/11/10 03:58:37;;;;;;;4.57;2.60;;;24.80;99.90;;;;;;5032493;28;20108;-49
2022/11/10 04:01:03;;;;;;;3.60;2.22;;;24.80;99.90;;;;;;5032690;28;20386;-49
2022/11/10 04:03:29;;;;;;;2.70;2.10;;;24.80;99.90;;;;;;5032394;28;20041;-49
2022/11/10 04:16:51;;;;;;;3.95;2.20;;;24.80;99.90;;;;;;5036422;28;20113;-49
2022/11/10 04:19:17;;;;;;;3.90;1.85;;;24.80;99.90;;;;;;5036074;28;20042;-49
2022/11/10 04:21:43;;;;;;;3.03;1.88;;;24.80;99.90;;;;;;5036004;28;20036;-49
2022/11/10 04:24:09;;;;;;;5.53;2.58;;;24.70;99.90;;;;;;5035995;28;20033;-49
2022/11/10 04:26:39;;;;;;;2.80;2.28;;;24.70;99.90;;;;;;5035850;28;20030;-49
2022/11/10 04:29:07;;;;;;;2.03;1.73;;;24.70;99.90;;;;;;5035875;28;20037;-49
2022/11/10 04:31:36;;;;;;;2.42;1.70;;;24.70;99.90;;;;;;5035768;28;20029;-49
2022/11/10 04:34:07;;;;;;;3.67;2.50;;;24.70;99.90;;;;;;5035859;28;20390;-49
2022/11/10 04:36:35;;;;;;;3.38;2.00;;;24.70;99.90;;;;;;5035741;28;20026;-49
2022/11/10 04:39:01;;;;;;;4.72;2.05;;;24.70;99.90;;;;;;5034403;28;20470;-49
2022/11/10 04:41:30;;;;;;;5.15;2.53;;;24.70;99.90;;;;;;5035961;28;20519;-49
2022/11/10 04:43:57;;;;;;;2.28;1.88;;;24.70;99.90;;;;;;5035672;28;20034;-48
2022/11/10 04:46:28;;;;;;;6.20;2.30;;;24.70;99.90;;;;;;5035316;28;20021;-49
2022/11/10 04:48:55;;;;;;;3.15;1.90;;;24.70;99.90;;;;;;5035444;28;20080;-49
2022/11/10 04:51:26;;;;;;;3.60;2.05;;;24.70;99.90;;;;;;5035231;28;20478;-49
2022/11/10 04:53:52;;;;;;;2.55;1.92;;;24.70;99.90;;;;;;5035399;28;20040;-49
2022/11/10 04:56:20;;;;;;;2.80;2.05;;;24.70;99.90;;;;;;5035219;28;20025;-50
2022/11/10 04:58:47;;;;;;;3.92;2.00;;;24.70;99.90;;;;;;5035256;28;20026;-49
2022/11/10 05:01:15;;;;;;;2.55;1.95;;;24.70;99.90;;;;;;5063475;22;20076;-45
2022/11/10 05:03:42;;;;;;;4.22;2.78;;;24.70;99.90;;;;;;5055225;28;20423;-45
2022/11/10 05:06:08;;;;;;;3.85;2.55;;;24.70;99.90;;;;;;5055218;28;20021;-45
2022/11/10 05:08:35;;;;;;;2.92;2.10;;;24.60;99.90;;;;;;5055076;28;20078;-46
2022/11/10 05:11:00;;;;;;;3.53;2.75;;;24.60;99.90;;;;;;5055215;28;20037;-45
2022/11/10 05:13:27;;;;;;;3.58;2.22;;;24.60;99.90;;;;;;5054909;28;20131;-45
2022/11/10 05:15:52;;;;;;;3.85;2.53;;;24.60;99.90;;;;;;5053963;28;20084;-45
2022/11/10 05:18:18;;;;;;;3.83;2.17;;;24.60;99.90;;;;;;5055293;28;20021;-44
2022/11/10 05:20:45;;;;;;;3.30;2.22;;;24.60;99.90;;;;;;5036886;28;20025;-45
2022/11/10 05:25:55;;;;;;;4.10;2.33;;;24.60;99.90;;;;;;5054994;28;20056;-45
2022/11/10 05:28:20;;;;;;;3.15;2.30;;;24.60;99.90;;;;;;5054699;28;20461;-45
2022/11/10 05:30:46;;;;;;;4.85;2.55;;;24.60;99.90;;;;;;5054632;28;20128;-45
2022/11/10 05:33:12;;;;;;;4.22;2.45;;;24.60;99.90;;;;;;5054959;28;20029;-46
2022/11/10 05:35:39;;;;;;;2.55;2.08;;;24.60;99.90;;;;;;5054536;28;20025;-45
2022/11/10 05:38:05;;;;;;;3.50;2.17;;;24.50;99.90;;;;;;5054696;28;20514;-45
2022/11/10 05:40:32;;;;;;;3.47;2.20;;;24.60;99.90;;;;;;5054364;28;20095;-45
2022/11/10 05:42:58;;;;;;;2.73;2.00;;;24.50;99.90;;;;;;5054569;28;20453;-45
2022/11/10 05:45:25;;;;;;;3.78;2.30;;;24.50;99.90;;;;;;5054258;28;20032;-45
2022/11/10 05:47:51;;;;;;;;;;;24.50;99.90;;;;;;5054686;28;20037;-45
2022/11/10 05:50:18;;;;;;;3.30;2.10;;;24.50;99.90;;;;;;5054395;28;20372;-44
2022/11/10 05:52:50;;;;;;;4.78;2.08;;;24.50;99.90;;;;;;5054277;28;20465;-45
2022/11/10 05:55:19;;;;;;;2.80;1.70;;;24.50;99.90;;;;;;5054484;28;20036;-45
2022/11/10 05:57:46;;;;;;;4.53;2.65;;;24.50;99.90;;;;;;5054133;28;20469;-45
2022/11/10 06:00:17;;;;;;;3.42;2.03;;;24.50;99.90;;;;;;5053914;28;20044;-45
2022/11/10 06:02:43;;;;;;;2.83;2.40;;;24.50;99.90;;;;;;5054176;28;20033;-45
2022/11/10 06:05:10;;;;;;;2.78;2.08;;;24.50;99.90;;;;;;5053814;28;20047;-45
2022/11/10 06:07:39;;;;;;;2.85;2.55;;;24.50;99.90;;;;;;5052798;28;20035;-44
2022/11/10 06:10:06;;;;;;;3.15;2.30;;;24.50;99.90;;;;;;5053779;28;20068;-45
2022/11/10 06:12:31;;;;;;;4.63;2.72;;;24.50;99.90;;;;;;5054042;28;20025;-45
2022/11/10 06:14:57;;;;;;;4.53;2.80;;;24.50;99.90;;;;;;5053670;28;20099;-44
2022/11/10 06:17:26;;;;;;;3.13;2.47;;;24.50;99.90;;;;;;5053774;28;20025;-45
2022/11/10 06:19:52;;;;;;;4.22;2.10;;;24.50;99.90;;;;;;5053716;28;20045;-45
2022/11/10 06:22:18;;;;;;;3.10;2.42;;;24.50;99.90;;;;;;5053855;28;20057;-45
2022/11/10 06:24:43;;;;;;;5.28;2.60;;;24.50;99.90;;;;;;5053580;28;20071;-45
2022/11/10 06:27:09;;;;;;;4.28;2.75;;;24.50;99.90;;;;;;5053195;28;20056;-46
2022/11/10 06:29:35;;;;;;;3.90;2.80;;;24.50;99.90;;;;;;5053306;28;20125;-45
2022/11/10 06:32:00;;;;;;;4.25;2.33;;;24.50;99.90;;;;;;5053880;28;20036;-45
2022/11/10 06:34:26;;;;;;;3.13;2.20;;;24.50;99.90;;;;;;5053300;28;20067;-45
2022/11/10 06:36:52;;;;;;;4.18;2.30;;;24.50;99.90;;;;;;5053404;28;20037;-45
2022/11/10 06:39:18;;;;;;;2.30;1.88;;;24.50;99.90;;;;;;5053240;28;20155;-44
2022/11/10 06:41:44;;;;;;;3.78;2.25;;;24.50;99.90;;;;;;5053263;28;20025;-45
2022/11/10 06:44:10;;;;;;;3.60;2.40;;;24.50;99.90;;;;;;5053259;28;20322;-45
2022/11/10 06:46:36;;;;;;;3.90;2.35;;;24.50;99.90;;;;;;5053443;28;20025;-45
2022/11/10 06:49:03;;;;;;;3.40;2.78;;;24.50;99.90;;;;;;5053063;28;20031;-45
2022/11/10 06:51:28;;;;;;;5.80;2.47;;;24.40;99.90;;;;;;5053050;28;20029;-45
2022/11/10 06:53:54;;;;;;;4.20;2.78;;;24.50;99.90;;;;;;5053248;28;20423;-45
2022/11/10 06:56:20;;;;;;;5.57;2.58;;;24.40;99.90;;;;;;5053103;28;20025;-45
2022/11/10 06:58:46;;;;;;;3.72;2.28;;;24.40;99.90;;;;;;5053199;28;20024;-46
2022/11/10 07:01:12;;;;;;;2.53;2.22;;;24.40;99.90;;;;;;5052974;28;20458;-46
2022/11/10 07:03:38;;;;;;;7.47;2.33;;;24.40;99.90;;;;;;5053056;28;20043;-46
2022/11/10 07:06:05;;;;;;;3.70;2.70;;;24.40;99.90;;;;;;5052884;28;20028;-45
2022/11/10 07:08:30;;;;;;;3.78;2.45;;;24.40;99.90;;;;;;5034999;28;20066;-45
2022/11/10 07:10:56;;;;;;;4.40;2.10;;;24.40;99.90;;;;;;5052832;28;20136;-45
2022/11/10 07:13:22;;;;;;;3.25;2.50;;;24.50;99.90;;;;;;5053185;28;20090;-45
2022/11/10 07:15:48;;;;;;;3.72;2.47;;;24.50;99.90;;;;;;5052826;28;20032;-45
2022/11/10 07:18:14;;;;;;;3.38;2.50;;;24.50;99.90;;;;;;5034993;28;20048;-45
2022/11/10 07:20:40;;;;;;;4.80;2.58;;;24.50;99.90;;;;;;5052797;28;20481;-45
2022/11/10 07:23:07;;;;;;;3.85;2.33;;;24.50;99.90;;;;;;5052851;28;20028;-45
2022/11/10 07:25:36;;;;;;;3.33;2.40;;;24.50;99.90;;;;;;5052846;28;20123;-45
2022/11/10 07:28:05;;;;;;;5.15;2.80;;;24.50;99.90;;;;;;5051781;28;20030;-45
2022/11/10 07:30:33;;;;;;;3.63;2.50;;;24.50;99.90;;;;;;5052601;28;20025;-46
2022/11/10 07:32:59;;;;;;;;;;;24.60;99.90;;;;;;5053391;28;20084;-45
2022/11/10 07:35:27;;;;;;;2.92;2.00;;;24.60;99.90;;;;;;5052684;28;20361;-45
2022/11/10 07:37:56;;;;;;;4.20;2.50;;;24.60;99.90;;;;;;5052748;28;20534;-45
2022/11/10 07:40:22;;;;;;;4.93;2.60;;;24.70;99.90;;;;;;5055729;28;20071;-45
2022/11/10 07:42:48;;;;;;;5.18;2.53;;;24.70;99.90;;;;;;5056682;28;20025;-45
2022/11/10 07:45:14;;;;;;;4.30;2.55;;;24.70;99.90;;;;;;5056450;28;20028;-45
2022/11/10 07:47:40;;;;;;;5.13;2.65;;;24.70;99.90;;;;;;5056462;28;20096;-45
2022/11/10 07:50:06;;;;;;;4.68;2.65;;;24.70;99.90;;;;;;5056354;28;20449;-45
2022/11/10 07:52:33;;;;;;;3.72;2.20;;;24.70;99.90;;;;;;5056426;28;20373;-45
2022/11/10 07:54:59;;;;;;;4.35;2.00;;;24.80;99.90;;;;;;5055047;28;20380;-45
2022/11/10 07:57:24;;;;;;;3.85;2.53;;;24.80;99.90;;;;;;5056442;28;20033;-45
2022/11/10 07:59:50;;;;;;;4.20;2.30;;;24.80;99.90;;;;;;5054868;28;20502;-45
2022/11/10 08:02:16;;;;;;;4.07;2.20;;;24.80;99.90;;;;;;5054857;28;20028;-45
2022/11/10 08:04:42;;;;;;;4.55;3.03;;;24.90;99.90;;;;;;5056013;28;20017;-45
2022/11/10 08:07:07;;;;;;;3.58;2.45;;;24.90;99.90;;;;;;5056041;28;20032;-45
2022/11/10 08:09:33;;;;;;;4.68;2.50;;;24.90;99.90;;;;;;5056292;28;20032;-45
2022/11/10 08:11:59;;;;;;;4.30;2.55;;;25.00;99.90;;;;;;5056005;28;20114;-44
2022/11/10 08:14:25;;;;;;;2.47;2.08;;;25.00;99.90;;;;;;5055947;28;20024;-44
2022/11/10 08:16:51;;;;;;;3.47;2.65;;;25.00;99.90;;;;;;5055951;28;20096;-44
2022/11/10 08:19:16;;;;;;;3.88;2.60;;;25.00;99.90;;;;;;5055829;28;20021;-45
2022/11/10 08:21:42;;;;;;;2.85;1.90;;;25.00;99.90;;;;;;5055959;28;20036;-44
2022/11/10 08:24:08;;;;;;;3.35;2.45;;;25.00;99.90;;;;;;5056062;28;20025;-45
2022/11/10 08:26:34;;;;;;;3.05;2.65;;;25.10;99.90;;;;;;5055937;28;20377;-45
2022/11/10 08:29:00;;;;;;;4.05;2.63;;;25.10;99.90;;;;;;5055787;28;20017;-45
2022/11/10 08:31:25;;;;;;;4.63;2.30;;;25.20;99.90;;;;;;5055709;28;20543;-45
2022/11/10 08:33:51;;;;;;;3.55;2.60;;;25.20;99.90;;;;;;5055899;28;20013;-45
2022/11/10 08:36:17;;;;;;;3.95;1.85;;;25.20;99.90;;;;;;5055438;28;20066;-45
2022/11/10 08:38:43;;;;;;;3.58;2.25;;;25.20;99.90;;;;;;5055719;28;20070;-45
2022/11/10 08:41:08;;;;;;;3.65;2.10;;;25.30;99.90;;;;;;5055471;28;20024;-45
2022/11/10 08:43:34;;;;;;;4.60;2.20;;;25.30;99.90;;;;;;5037711;28;20051;-45
2022/11/10 08:46:03;;;;;;;4.88;2.30;;;25.30;99.90;;;;;;5055562;28;20037;-45
2022/11/10 08:48:29;;;;;;;2.78;2.03;;;25.30;99.90;;;;;;5055372;28;20017;-45
2022/11/10 08:50:57;;;;;;;3.53;2.08;;;25.30;99.90;;;;;;5054074;28;20040;-45
2022/11/10 08:53:24;;;;;;;3.88;2.20;;;25.40;99.90;;;;;;5055055;28;20025;-45
2022/11/10 08:55:50;;;;;;;3.53;2.47;;;25.40;99.90;;;;;;5055220;28;20029;-45
2022/11/10 08:58:20;;;;;;;4.45;2.28;;;25.50;99.90;;;;;;5055238;28;20024;-45
2022/11/10 09:00:46;;;;;;;3.22;2.40;;;25.50;99.90;;;;;;5054743;28;20049;-45
2022/11/10 09:03:22;;;;;;;2.78;2.00;;;25.50;99.90;;;;;;5055131;28;20481;-45
2022/11/10 09:05:49;;;;;;;3.67;2.13;;;25.60;99.90;;;;;;5055115;28;20071;-45
2022/11/10 09:08:15;;;;;;;3.75;2.38;;;25.60;99.90;;;;;;5054811;28;20051;-45
2022/11/10 09:10:44;;;;;;;3.75;2.70;;;25.70;99.90;;;;;;5054819;28;20037;-45
2022/11/10 09:13:11;;;;;;;5.70;2.42;;;25.70;99.90;;;;;;5053695;28;20025;-45
2022/11/10 09:15:38;;;;;;;3.90;2.53;;;25.70;99.90;;;;;;5055014;28;20025;-45
2022/11/10 09:18:05;;;;;;;4.20;2.20;;;25.80;99.90;;;;;;5054606;28;20461;-44
2022/11/10 09:20:32;;;;;;;;;;;25.80;99.90;;;;;;5053747;28;20131;-44
2022/11/10 09:23:10;;;;;;;6.60;2.42;;;25.90;99.90;;;;;;5054755;28;19950;-44
2022/11/10 09:25:37;;;;;;;3.17;1.92;;;25.90;99.90;;;;;;5054760;28;20037;-44
2022/11/10 09:28:03;;;;;;;4.88;2.47;;;25.90;99.90;;;;;;5054681;28;20025;-45
2022/11/10 09:30:29;;;;;;;2.80;1.88;;;26.00;99.90;;;;;;5036461;28;20050;-45
2022/11/10 09:32:56;;;;;;;5.32;2.10;;;26.00;99.90;;;;;;5054418;28;20029;-44
2022/11/10 09:35:23;;;;;;;10.00;2.03;;;26.10;99.90;;;;;;5053247;28;20025;-45
2022/11/10 09:37:48;;;;;;;4.47;2.28;;;26.10;99.90;;;;;;5053220;28;20084;-45
2022/11/10 09:40:18;;;;;;;3.58;2.10;;;26.10;99.90;;;;;;5054287;28;20413;-44
2022/11/10 09:42:46;;;;;;;7.35;2.83;;;26.20;99.90;;;;;;5054319;28;20047;-46
2022/11/10 09:45:31;;;;;;;4.60;2.20;;;26.20;99.90;;;;;;5054084;28;20025;-44
2022/11/10 09:48:00;;;;;;;6.50;2.00;;;26.20;99.90;;;;;;5054472;28;20067;-45
2022/11/10 09:50:34;;;;;;;2.70;2.03;;;26.30;99.90;;;;;;5053885;28;20029;-44
2022/11/10 09:53:01;;;;;;;4.45;2.45;;;26.30;99.90;;;;;;5053670;28;20481;-45
2022/11/10 09:55:44;;;;;;;4.97;2.10;;;26.40;99.90;;;;;;5053382;28;20051;-44
2022/11/10 09:58:13;;;;;;;3.53;2.20;;;26.40;99.90;;;;;;5053567;28;20078;-44
2022/11/10 10:00:44;;;;;;;5.43;3.03;;;26.50;99.90;;;;;;5053417;28;20053;-44
2022/11/10 10:03:16;;;;;;;3.53;2.03;;;26.50;99.90;;;;;;5035431;28;20025;-45
2022/11/10 10:06:01;;;;;;;4.57;2.25;;;26.50;99.90;;;;;;5052639;28;20028;-44
2022/11/10 10:08:38;;;;;;;3.97;2.30;;;26.60;99.90;;;;;;5053766;28;20056;-46
2022/11/10 10:11:46;;;;;;;3.85;2.33;;;26.70;99.90;;;;;;5053858;28;20044;-45
2022/11/10 10:14:17;;;;;;;4.00;2.00;;;26.70;99.90;;;;;;5020225;28;20033;-45
2022/11/10 10:16:51;;;;;;;6.10;2.30;;;26.70;99.90;;;;;;5053719;28;20025;-45
2022/11/10 10:19:46;;;;;;;3.53;1.95;;;26.80;99.90;;;;;;5053757;28;20036;-45
2022/11/10 10:22:12;;;;;;;6.15;2.47;;;26.80;99.90;;;;;;5039579;28;20029;-45
2022/11/10 10:24:38;;;;;;;4.03;2.55;;;26.80;99.90;;;;;;5053565;28;20032;-44
2022/11/10 10:27:08;;;;;;;3.50;2.28;;;26.90;99.90;;;;;;5035619;28;20025;-44
2022/11/10 10:29:41;;;;;;;3.58;2.13;;;26.80;99.90;;;;;;5053486;28;20025;-45
2022/11/10 10:32:12;;;;;;;2.95;2.15;;;26.80;99.90;;;;;;5052087;28;20424;-45
2022/11/10 10:34:39;;;;;;;3.30;2.10;;;26.90;99.90;;;;;;5053340;28;20048;-45
2022/11/10 10:37:14;;;;;;;10.88;2.50;;;26.90;99.90;;;;;;5053288;28;20066;-44
2022/11/10 10:39:45;;;;;;;3.97;1.90;;;27.00;99.90;;;;;;5053267;28;20013;-45
2022/11/10 10:42:30;;;;;;;2.85;2.05;;;27.10;99.90;;;;;;5051872;28;20116;-45
2022/11/10 10:45:20;;;;;;;5.95;2.45;;;27.10;99.90;;;;;;5053117;28;20029;-45
2022/11/10 10:47:48;;;;;;;4.15;2.63;;;27.20;99.90;;;;;;5053111;28;20033;-45
2022/11/10 10:50:34;;;;;;;4.43;2.20;;;27.30;99.90;;;;;;5053095;28;20033;-45
2022/11/10 10:53:16;;;;;;;3.85;2.20;;;27.30;99.90;;;;;;5053197;28;20096;-45
2022/11/10 10:55:59;;;;;;;3.65;2.17;;;27.40;99.90;;;;;;5051156;28;20021;-45
2022/11/10 10:58:57;;;;;;;7.75;2.47;;;27.50;99.90;;;;;;5044889;28;20032;-45
2022/11/10 11:01:32;;;;;;;5.10;1.88;;;27.50;99.90;;;;;;5052521;28;20129;-45
2022/11/10 11:04:00;;;;;;;3.63;2.00;;;27.60;99.90;;;;;;5043508;28;20021;-45
2022/11/10 11:06:31;;;;;;;2.95;2.00;;;27.60;99.90;;;;;;5047907;28;20029;-45
2022/11/10 11:09:05;;;;;;;4.25;2.00;;;27.70;99.90;;;;;;5043456;28;20021;-45
2022/11/10 11:11:34;;;;;;;4.40;1.88;;;27.70;99.90;;;;;;5043249;28;20083;-45
2022/11/10 11:14:22;;;;;;;3.63;2.53;;;27.80;99.90;;;;;;5043306;28;20056;-45
2022/11/10 11:16:52;;;;;;;3.88;2.03;;;27.80;99.90;;;;;;5036900;28;20033;-45
2022/11/10 11:19:21;;;;;;;3.63;1.90;;;27.90;99.90;;;;;;5036916;28;20013;-45
2022/11/10 11:22:23;;;;;;;4.22;2.28;;;27.90;99.90;;;;;;5037088;28;20378;-45
2022/11/10 11:25:09;;;;;;;4.10;2.00;;;27.90;99.90;;;;;;5037010;28;20032;-45
2022/11/10 11:27:57;;;;;;;6.13;2.00;;;28.00;99.90;;;;;;5041380;28;20391;-45
2022/11/10 11:30:26;;;;;;;9.93;2.00;;;28.00;99.90;;;;;;5052298;28;20033;-46
2022/11/10 11:33:28;;;;;;;4.00;0.80;;;28.10;99.90;;;;;;5036749;28;20117;-45
2022/11/10 11:36:15;;;;;;;9.40;2.60;;;28.00;99.90;;;;;;5050703;28;20075;-43
2022/11/10 11:39:07;;;;;;;6.45;2.40;;;28.00;99.90;;;;;;5051167;28;20025;-44
2022/11/10 11:42:02;;;;;;;3.05;0.98;;;28.00;99.90;;;;;;5046107;28;20052;-44
2022/11/10 11:44:49;;;;;;;4.40;0.93;;;28.00;99.90;;;;;;5024858;28;20115;-44
2022/11/10 11:47:27;;;;;;;4.88;2.17;;;28.00;99.90;;;;;;5046410;28;20393;-44
2022/11/10 11:50:08;;;;;;;7.13;1.38;;;28.00;99.90;;;;;;5049766;28;20485;-46
2022/11/10 11:53:09;;;;;;;5.55;1.50;;;28.00;99.90;;;;;;5046616;28;20028;-46
2022/11/10 11:55:57;;;;;;;4.05;0.77;;;28.00;99.90;;;;;;5054558;28;20032;-46
2022/11/10 11:58:22;;;;;;;;;;;28.00;99.90;;;;;;5044136;28;20027;-46
2022/11/10 12:00:53;;;;;;;3.92;0.70;;;28.00;99.90;;;;;;5049691;28;20095;-45
2022/11/10 12:03:46;;;;;;;4.03;0.80;;;28.00;99.90;;;;;;5053747;28;20021;-45
2022/11/10 12:06:41;;;;;;;4.10;0.60;;;27.90;99.90;;;;;;5053554;28;20021;-45
2022/11/10 12:09:47;;;;;;;4.13;0.73;;;27.90;99.90;;;;;;5053496;28;20564;-44
2022/11/10 12:12:15;;;;;;;9.40;1.23;;;27.80;99.90;;;;;;5051911;28;20512;-45
2022/11/10 12:14:44;;;;;;;8.20;2.47;;;27.80;99.90;;;;;;5052641;28;20469;-45
2022/11/10 12:17:19;;;;;;;6.40;2.13;;;27.80;99.90;;;;;;5053397;28;20362;-44
2022/11/10 12:20:03;;;;;;;5.07;1.88;;;27.80;99.90;;;;;;5053447;28;20402;-44
2022/11/10 12:22:42;;;;;;;6.82;1.58;;;27.90;99.90;;;;;;5053454;28;20021;-44
2022/11/10 12:25:11;;;;;;;3.00;1.30;;;27.80;99.90;;;;;;5052730;28;20025;-44
2022/11/10 12:27:45;;;;;;;7.65;1.10;;;27.80;99.90;;;;;;5052585;28;20032;-45
2022/11/10 12:30:12;;;;;;;4.68;1.08;;;27.80;99.90;;;;;;5051165;28;20104;-44
2022/11/10 12:32:55;;;;;;;3.03;0.80;;;27.70;99.90;;;;;;5053286;28;20493;-45
2022/11/10 12:35:38;;;;;;;4.70;0.82;;;27.70;99.90;;;;;;5050881;28;20029;-44
2022/11/10 12:38:25;;;;;;;2.45;0.90;;;27.70;99.90;;;;;;5053486;28;20017;-45
2022/11/10 12:41:00;;;;;;;5.32;1.08;;;27.70;99.90;;;;;;5049201;28;20028;-44
2022/11/10 12:43:38;;;;;;;5.72;1.40;;;27.70;99.90;;;;;;5046977;28;20013;-44
2022/11/10 12:46:09;;;;;;;4.13;1.20;;;27.80;99.90;;;;;;5043159;28;20424;-44
2022/11/10 12:49:05;;;;;;;6.22;2.00;;;27.90;99.90;;;;;;5046603;28;20029;-44
2022/11/10 12:51:56;;;;;;;4.25;1.58;;;27.90;99.90;;;;;;5049847;28;20045;-44
2022/11/10 12:54:25;;;;;;;4.63;1.10;;;27.90;99.90;;;;;;5052933;28;20029;-44
2022/11/10 12:56:56;;;;;;;6.82;2.00;;;28.00;99.90;;;;;;5052693;28;20039;-44
2022/11/10 12:59:24;;;;;;;7.53;2.85;;;27.90;99.90;;;;;;5052625;28;20086;-44
2022/11/10 13:01:59;;;;;;;4.65;2.00;;;28.00;99.90;;;;;;5052536;28;20045;-44
2022/11/10 13:04:25;;;;;;;6.57;1.38;;;28.00;99.90;;;;;;5051555;28;20027;-44
2022/11/10 13:06:58;;;;;;;5.63;1.45;;;28.00;99.90;;;;;;5053146;28;20029;-44
2022/11/10 13:09:38;;;;;;;6.43;2.58;;;28.00;99.90;;;;;;5049962;28;20079;-44
2022/11/10 13:12:17;;;;;;;9.30;3.08;;;28.10;99.90;;;;;;5050830;28;20047;-44
2022/11/10 13:14:44;;;;;;;6.25;1.90;;;28.10;99.90;;;;;;5051224;28;20116;-43
2022/11/10 13:17:25;;;;;;;3.75;1.75;;;28.10;99.90;;;;;;5051901;28;20025;-43